Time;durP1;ratioP1;P1;durP2;ratioP2;P2;SDS_P1;SDS_P2;PMS_P1;PMS_P2;Temp;Humidity;BMP_temperature;BMP_pressure;BME280_temperature;BME280_humidity;BME280_pressure;Samples;Min_cycle;Max_cycle;Signal;HPM_P1;HPM_P2
2021/08/06 00:01:24;;;;;;;16.87;14.38;;;;;;;15.46;78.42;99685.98;1727629;81;21554;-74
2021/08/06 00:03:51;;;;;;;15.18;13.75;;;;;;;15.45;78.47;99682.16;1736599;81;21554;-75
2021/08/06 00:06:17;;;;;;;15.20;13.70;;;;;;;15.46;78.53;99682.47;1739297;81;21613;-75
2021/08/06 00:08:43;;;;;;;16.02;14.05;;;;;;;15.36;78.57;99666.84;1734497;82;21703;-75
2021/08/06 00:11:09;;;;;;;14.53;13.03;;;;;;;15.46;78.62;99676.58;1765273;80;21027;-75
2021/08/06 00:13:35;;;;;;;15.20;13.55;;;;;;;15.47;78.51;99681.44;1765142;80;21050;-75
2021/08/06 00:16:01;;;;;;;14.47;13.08;;;;;;;15.47;78.73;99683.61;1757288;81;21009;-75
2021/08/06 00:18:27;;;;;;;15.70;13.53;;;;;;;15.48;78.77;99682.58;1757109;81;21089;-75
2021/08/06 00:20:53;;;;;;;16.05;13.13;;;;;;;15.51;78.83;99681.85;1756099;81;21202;-75
2021/08/06 00:23:19;;;;;;;15.45;13.95;;;;;;;15.53;78.89;99689.16;1758580;79;21071;-75
2021/08/06 00:25:46;;;;;;;15.43;13.90;;;;;;;15.53;78.91;99683.78;1761703;80;21002;-75
2021/08/06 00:28:12;;;;;;;16.32;13.25;;;;;;;15.53;78.95;99679.75;1757664;81;21487;-74
2021/08/06 00:30:38;;;;;;;15.95;14.30;;;;;;;15.52;78.99;99672.21;1758446;80;21007;-74
2021/08/06 00:33:04;;;;;;;16.37;14.70;;;;;;;15.53;78.98;99675.73;1785802;80;21759;-75
2021/08/06 00:35:30;;;;;;;15.50;13.85;;;;;;;15.51;79.10;99666.55;1789728;80;20936;-74
2021/08/06 00:37:56;;;;;;;16.02;14.40;;;;;;;15.51;79.14;99671.10;1754956;81;21085;-74
2021/08/06 00:40:23;;;;;;;15.45;13.60;;;;;;;15.51;79.17;99669.24;1759265;80;21117;-75
2021/08/06 00:42:50;;;;;;;16.23;14.55;;;;;;;15.48;79.22;99661.08;1758971;81;21054;-75
2021/08/06 00:45:16;;;;;;;16.40;14.68;;;;;;;15.46;79.25;99662.31;1758844;81;21767;-75
2021/08/06 00:47:42;;;;;;;16.57;14.53;;;;;;;15.44;79.31;99661.20;1758897;81;21542;-75
2021/08/06 00:50:10;;;;;;;15.32;13.85;;;;;;;15.44;79.32;99665.23;1758738;81;21467;-75
2021/08/06 00:52:36;;;;;;;21.48;14.70;;;;;;;15.44;79.39;99658.52;1760338;80;21022;-75
2021/08/06 00:55:04;;;;;;;15.05;13.55;;;;;;;15.44;79.39;99650.98;1758690;81;21041;-75
2021/08/06 00:57:30;;;;;;;16.57;14.45;;;;;;;15.43;79.42;99652.83;1758797;81;21150;-74
2021/08/06 00:59:57;;;;;;;17.73;15.85;;;;;;;15.43;79.46;99646.63;1759269;80;21054;-74
2021/08/06 01:02:30;;;;;;;15.90;14.20;;;;;;;15.42;79.49;99651.70;1762568;80;21061;-74
2021/08/06 01:05:08;;;;;;;38.28;17.15;;;;;;;15.41;79.49;99652.21;1744149;81;21050;-75
2021/08/06 01:08:01;;;;;;;17.45;14.00;;;;;;;15.42;79.54;99651.18;1761737;81;21669;-74
2021/08/06 01:10:57;;;;;;;15.80;14.30;;;;;;;15.40;79.61;99642.53;1748670;81;21180;-74
2021/08/06 01:13:33;;;;;;;15.90;14.25;;;;;;;15.36;79.64;99641.32;1732263;81;21003;-75
2021/08/06 01:16:02;;;;;;;15.00;13.50;;;;;;;15.34;79.63;99639.35;1731841;82;21515;-75
2021/08/06 01:18:31;;;;;;;15.90;14.25;;;;;;;15.31;79.67;99635.77;1732150;82;21051;-75
2021/08/06 01:21:03;;;;;;;16.90;14.03;;;;;;;15.30;79.68;99634.14;1732124;82;21011;-75
2021/08/06 01:23:32;;;;;;;14.58;13.05;;;;;;;15.28;79.70;99630.84;1731751;82;21219;-75
2021/08/06 01:26:11;;;;;;;18.40;14.07;;;;;;;15.27;79.74;99629.18;1732028;82;20997;-75
2021/08/06 01:28:41;;;;;;;16.50;14.25;;;;;;;15.26;79.76;99627.56;1731735;82;21482;-75
2021/08/06 01:31:07;;;;;;;18.82;13.95;;;;;;;15.25;79.78;99623.22;1713359;82;21496;-75
2021/08/06 01:33:33;;;;;;;15.88;13.75;;;;;;;15.23;79.76;99622.63;1731891;82;21007;-75
2021/08/06 01:36:00;;;;;;;16.02;13.85;;;;;;;15.21;79.79;99627.37;1712907;82;21159;-75
2021/08/06 01:38:26;;;;;;;16.40;14.20;;;;;;;15.20;79.83;99632.44;1731513;82;21058;-75
2021/08/06 01:41:03;;;;;;;16.10;14.07;;;;;;;15.19;79.85;99634.84;1731851;82;21012;-75
2021/08/06 01:43:50;;;;;;;16.60;13.95;;;;;;;15.15;79.85;99628.27;1731902;82;21016;-75
2021/08/06 01:46:20;;;;;;;17.45;13.72;;;;;;;15.15;80.05;99628.27;1713323;82;21487;-75
2021/08/06 01:48:49;;;;;;;17.62;13.53;;;;;;;15.14;79.91;99625.27;1731876;82;21357;-76
2021/08/06 01:51:15;;;;;;;13.90;12.55;;;;;;;15.13;79.99;99626.84;1731707;82;21516;-75
2021/08/06 01:53:45;;;;;;;16.85;12.43;;;;;;;15.02;79.94;99597.48;1731819;82;21577;-75
2021/08/06 01:56:12;;;;;;;17.90;13.50;;;;;;;15.12;79.97;99628.70;1731845;82;21018;-75
2021/08/06 01:58:39;;;;;;;14.50;13.10;;;;;;;15.12;79.99;99619.81;1731408;82;21043;-75
2021/08/06 02:01:05;;;;;;;15.68;11.95;;;;;;;15.12;79.99;99619.81;1731870;82;21142;-75
2021/08/06 02:03:31;;;;;;;14.07;12.68;;;;;;;15.12;80.00;99622.50;1731580;82;21074;-75
2021/08/06 02:05:57;;;;;;;14.83;12.47;;;;;;;15.12;80.01;99607.22;1731869;82;21062;-75
2021/08/06 02:08:23;;;;;;;13.30;12.00;;;;;;;15.12;80.04;99607.22;1731770;82;20996;-75
2021/08/06 02:10:49;;;;;;;14.98;13.48;;;;;;;15.13;80.05;99607.50;1731979;82;21039;-75
2021/08/06 02:13:15;;;;;;;13.83;12.53;;;;;;;15.11;80.30;99602.88;1731878;82;21100;-75
2021/08/06 02:15:42;;;;;;;14.30;12.80;;;;;;;15.10;80.08;99607.94;1731823;82;21082;-75
2021/08/06 02:18:16;;;;;;;14.43;12.93;;;;;;;15.12;80.08;99608.56;1731705;82;21578;-75
2021/08/06 02:20:41;;;;;;;16.02;12.98;;;;;;;15.12;80.08;99608.56;1731630;82;21052;-75
2021/08/06 02:23:07;;;;;;;14.85;12.98;;;;;;;15.11;80.14;99606.91;1731785;82;21058;-75
2021/08/06 02:25:33;;;;;;;14.93;13.35;;;;;;;15.12;80.14;99609.91;1713092;82;21102;-75
2021/08/06 02:28:01;;;;;;;16.97;12.70;;;;;;;15.13;80.17;99598.64;1731926;82;20979;-75
2021/08/06 02:30:27;;;;;;;19.42;14.13;;;;;;;15.12;80.19;99601.84;1730972;82;21012;-75
2021/08/06 02:32:53;;;;;;;16.30;12.05;;;;;;;15.14;80.20;99602.44;1731837;82;21050;-75
2021/08/06 02:35:19;;;;;;;14.53;11.90;;;;;;;15.14;80.20;99597.06;1731873;82;21022;-74
2021/08/06 02:37:46;;;;;;;14.23;12.25;;;;;;;15.14;80.28;99594.38;1731746;82;21765;-75
2021/08/06 02:40:13;;;;;;;14.38;12.88;;;;;;;15.14;80.28;99594.38;1731757;82;21023;-75
2021/08/06 02:42:39;;;;;;;17.10;13.28;;;;;;;15.13;80.18;99604.81;1731645;82;21004;-74
2021/08/06 02:45:06;;;;;;;15.00;13.35;;;;;;;15.14;80.24;99596.23;1732044;82;21004;-75
2021/08/06 02:47:32;;;;;;;13.78;12.37;;;;;;;15.12;80.28;99591.10;1731664;82;21015;-75
2021/08/06 02:49:58;;;;;;;16.05;13.72;;;;;;;15.09;80.27;99594.23;1731620;82;21140;-75
2021/08/06 02:52:24;;;;;;;13.93;12.63;;;;;;;15.08;80.28;99589.89;1731726;82;21015;-75
2021/08/06 02:54:50;;;;;;;15.08;13.68;;;;;;;15.08;80.28;99590.41;1731782;82;21008;-75
2021/08/06 02:57:16;;;;;;;18.48;14.00;;;;;;;15.07;80.30;99584.72;1731919;82;21047;-75
2021/08/06 02:59:42;;;;;;;15.15;12.95;;;;;;;15.04;80.30;99590.02;1731663;82;21007;-75
2021/08/06 03:02:08;;;;;;;14.23;12.88;;;;;;;14.99;80.30;99585.81;1732039;82;21177;-74
2021/08/06 03:04:34;;;;;;;14.20;12.88;;;;;;;15.01;80.31;99594.48;1731597;82;21475;-75
2021/08/06 03:07:00;;;;;;;14.60;13.18;;;;;;;15.00;80.37;99590.15;1731810;82;21539;-74
2021/08/06 03:09:27;;;;;;;16.73;13.68;;;;;;;14.96;80.50;99587.59;1731690;82;21483;-74
2021/08/06 03:11:53;;;;;;;15.98;14.05;;;;;;;14.96;80.50;99587.59;1731636;82;21538;-74
2021/08/06 03:14:19;;;;;;;16.23;14.53;;;;;;;14.94;80.23;99587.00;1731041;82;21211;-75
2021/08/06 03:16:45;;;;;;;18.45;14.20;;;;;;;14.94;80.23;99587.00;1731782;82;21019;-74
2021/08/06 03:19:11;;;;;;;15.68;13.83;;;;;;;14.87;80.47;99573.63;1731850;82;20995;-74
2021/08/06 03:21:37;;;;;;;16.27;12.63;;;;;;;14.79;80.36;99569.03;1731463;82;21527;-74
2021/08/06 03:24:04;;;;;;;17.55;13.93;;;;;;;14.79;80.36;99569.03;1731927;82;21530;-75
2021/08/06 03:26:30;;;;;;;19.85;13.72;;;;;;;14.89;80.54;99588.16;1731228;82;21476;-74
2021/08/06 03:28:56;;;;;;;14.98;13.45;;;;;;;14.69;80.36;99549.91;1731628;82;21054;-75
2021/08/06 03:31:22;;;;;;;18.85;13.78;;;;;;;14.75;80.65;99562.45;1731695;82;21058;-74
2021/08/06 03:33:48;;;;;;;15.68;14.15;;;;;;;14.75;80.65;99562.45;1731526;82;21059;-74
2021/08/06 03:36:15;;;;;;;17.45;14.30;;;;;;;14.75;80.56;99573.19;1731765;82;21018;-75
2021/08/06 03:38:41;;;;;;;15.90;14.30;;;;;;;14.75;80.56;99573.19;1731669;82;21480;-75
2021/08/06 03:41:07;;;;;;;16.12;13.98;;;;;;;14.86;80.73;99592.62;1731682;82;21422;-75
2021/08/06 03:43:33;;;;;;;14.83;13.43;;;;;;;14.87;80.72;99596.45;1731748;82;21007;-74
2021/08/06 03:45:59;;;;;;;17.25;14.75;;;;;;;14.87;80.72;99596.45;1731834;82;21032;-74
2021/08/06 03:48:25;;;;;;;16.85;14.50;;;;;;;14.88;80.81;99594.59;1731568;82;21554;-75
2021/08/06 03:50:51;;;;;;;19.57;14.50;;;;;;;14.87;80.82;99591.08;1731704;82;21695;-75
2021/08/06 03:53:17;;;;;;;16.52;14.83;;;;;;;14.88;80.86;99587.88;1731666;82;21034;-74
2021/08/06 03:55:44;;;;;;;18.25;13.80;;;;;;;14.87;80.88;99588.91;1731876;82;21007;-75
2021/08/06 03:58:10;;;;;;;14.90;13.28;;;;;;;14.88;80.92;99585.20;1731662;82;20993;-75
2021/08/06 04:00:40;;;;;;;18.17;14.20;;;;;;;14.86;80.95;99585.91;1731801;82;21010;-75
2021/08/06 04:03:07;;;;;;;19.05;13.25;;;;;;;14.80;80.99;99574.20;1735735;82;21077;-74
2021/08/06 04:05:33;;;;;;;17.92;13.58;;;;;;;14.83;81.00;99589.04;1740822;82;21512;-74
2021/08/06 04:08:07;;;;;;;14.28;12.70;;;;;;;14.79;81.04;99574.40;1740969;81;21599;-74
2021/08/06 04:10:34;;;;;;;14.70;13.10;;;;;;;14.69;81.07;99561.47;1737237;81;21031;-75
2021/08/06 04:13:00;;;;;;;17.73;14.55;;;;;;;14.84;81.11;99587.49;1759771;81;20990;-75
2021/08/06 04:15:26;;;;;;;14.75;13.25;;;;;;;14.86;81.14;99593.97;1761712;81;21152;-74
2021/08/06 04:17:52;;;;;;;17.92;14.85;;;;;;;14.83;81.15;99586.35;1761282;81;21507;-75
2021/08/06 04:20:18;;;;;;;15.83;13.35;;;;;;;14.83;81.18;99588.52;1761753;81;21007;-74
2021/08/06 04:22:44;;;;;;;14.78;13.22;;;;;;;14.88;81.20;99589.22;1761259;81;21014;-74
2021/08/06 04:25:11;;;;;;;16.97;14.47;;;;;;;14.79;81.18;99569.86;1761625;81;21033;-74
2021/08/06 04:27:37;;;;;;;17.17;14.25;;;;;;;14.93;81.45;99589.37;1761550;81;21173;-74
2021/08/06 04:30:08;;;;;;;15.50;13.90;;;;;;;14.93;81.45;99589.37;1761726;81;20987;-74
2021/08/06 04:32:34;;;;;;;17.07;14.33;;;;;;;14.78;81.30;99558.81;1761394;81;21491;-74
2021/08/06 04:35:00;;;;;;;16.42;14.63;;;;;;;14.87;81.27;99570.12;1761642;81;21002;-75
2021/08/06 04:37:26;;;;;;;16.00;14.40;;;;;;;14.87;81.27;99570.12;1761647;81;21011;-74
2021/08/06 04:39:52;;;;;;;18.00;14.30;;;;;;;15.01;81.38;99595.83;1761597;81;21127;-75
2021/08/06 04:42:18;;;;;;;14.90;13.32;;;;;;;15.03;81.41;99603.66;1761428;81;21061;-75
2021/08/06 04:44:44;;;;;;;16.07;13.60;;;;;;;15.01;81.41;99590.46;1761422;81;20990;-74
2021/08/06 04:47:10;;;;;;;18.52;13.75;;;;;;;14.91;81.35;99576.19;1761423;81;21379;-74
2021/08/06 04:49:36;;;;;;;15.60;13.95;;;;;;;15.01;81.46;99591.80;1761334;81;21023;-75
2021/08/06 04:52:03;;;;;;;17.07;13.75;;;;;;;15.04;81.48;99589.19;1761487;81;21255;-75
2021/08/06 04:54:29;;;;;;;16.30;13.62;;;;;;;15.07;81.50;99592.27;1761571;81;20959;-75
2021/08/06 04:56:55;;;;;;;16.10;14.20;;;;;;;15.08;81.55;99585.03;1761463;81;20999;-75
2021/08/06 04:59:21;;;;;;;16.05;14.33;;;;;;;15.09;81.56;99579.46;1761365;81;21054;-75
2021/08/06 05:01:48;;;;;;;18.12;14.73;;;;;;;15.10;81.58;99577.05;1761454;81;21086;-75
2021/08/06 05:04:14;;;;;;;18.50;14.05;;;;;;;15.18;81.47;99583.50;1760964;81;21473;-75
2021/08/06 05:06:40;;;;;;;16.32;14.28;;;;;;;15.18;81.47;99583.50;1761165;81;20975;-75
2021/08/06 05:09:06;;;;;;;15.53;13.85;;;;;;;15.22;81.67;99588.73;1761284;81;21014;-75
2021/08/06 05:11:32;;;;;;;15.80;14.10;;;;;;;15.30;81.72;99587.13;1761163;81;21590;-75
2021/08/06 05:13:58;;;;;;;15.75;14.07;;;;;;;15.30;81.72;99587.13;1761302;81;21499;-75
2021/08/06 05:16:25;;;;;;;15.15;13.58;;;;;;;15.32;81.69;99590.41;1761341;81;21886;-75
2021/08/06 05:18:51;;;;;;;15.05;13.45;;;;;;;15.21;81.69;99570.97;1760982;81;21003;-75
2021/08/06 05:21:17;;;;;;;15.83;13.10;;;;;;;15.31;81.70;99582.55;1761105;81;21022;-75
2021/08/06 05:23:43;;;;;;;17.05;13.50;;;;;;;15.38;81.72;99588.17;1761209;81;21057;-75
2021/08/06 05:26:09;;;;;;;19.17;13.98;;;;;;;15.40;81.74;99590.13;1761158;81;20979;-75
2021/08/06 05:28:35;;;;;;;14.87;13.28;;;;;;;15.30;81.75;99562.95;1761178;81;21061;-75
2021/08/06 05:31:01;;;;;;;16.23;14.05;;;;;;;15.37;81.76;99591.92;1761146;81;21043;-75
2021/08/06 05:33:27;;;;;;;17.17;15.40;;;;;;;15.39;81.78;99598.41;1761737;81;21042;-75
2021/08/06 05:35:53;;;;;;;15.58;13.98;;;;;;;15.45;81.78;99601.02;1761010;81;21023;-75
2021/08/06 05:38:19;;;;;;;16.07;14.47;;;;;;;15.52;81.78;99598.85;1761420;81;21030;-75
2021/08/06 05:40:45;;;;;;;16.40;14.07;;;;;;;15.57;81.81;99603.02;1761301;81;21918;-75
2021/08/06 05:43:11;;;;;;;15.32;13.68;;;;;;;15.61;81.79;99608.27;1760969;81;20971;-75
2021/08/06 05:45:37;;;;;;;15.00;13.13;;;;;;;15.63;81.81;99611.53;1754377;81;21333;-75
2021/08/06 05:48:04;;;;;;;14.90;13.40;;;;;;;15.67;81.83;99610.88;1737573;81;21098;-75
2021/08/06 05:50:38;;;;;;;15.48;12.70;;;;;;;15.74;81.83;99617.02;1733248;81;20951;-75
2021/08/06 05:53:04;;;;;;;14.80;12.85;;;;;;;15.78;81.85;99613.36;1749347;81;21900;-75
2021/08/06 05:55:30;;;;;;;14.53;13.13;;;;;;;15.86;81.84;99611.21;1746298;81;20951;-75
2021/08/06 05:57:56;;;;;;;14.58;13.25;;;;;;;15.90;81.84;99610.24;1730363;83;21003;-75
2021/08/06 06:00:22;;;;;;;18.10;13.85;;;;;;;15.96;81.84;99613.37;1730016;83;21054;-75
2021/08/06 06:02:48;;;;;;;14.60;13.08;;;;;;;15.95;81.81;99607.69;1730614;82;21025;-74
2021/08/06 06:05:14;;;;;;;14.58;13.10;;;;;;;15.92;81.81;99614.86;1734007;82;21191;-74
2021/08/06 06:07:47;;;;;;;17.73;15.93;;;;;;;15.96;81.78;99614.20;1733959;82;20985;-75
2021/08/06 06:10:13;;;;;;;18.92;15.88;;;;;;;16.03;81.74;99618.16;1742640;81;21029;-75
2021/08/06 06:12:40;;;;;;;18.02;16.00;;;;;;;16.03;81.73;99614.13;1749319;81;21526;-75
2021/08/06 06:15:07;;;;;;;15.65;14.15;;;;;;;16.03;81.68;99614.13;1749573;81;21120;-75
2021/08/06 06:17:33;;;;;;;16.42;14.60;;;;;;;16.03;81.65;99608.74;1733338;82;21262;-75
2021/08/06 06:19:59;;;;;;;14.63;13.13;;;;;;;16.02;81.65;99612.98;1751341;81;20995;-75
2021/08/06 06:22:25;;;;;;;14.13;12.80;;;;;;;15.99;81.61;99596.27;1782914;80;21046;-75
2021/08/06 06:24:51;;;;;;;15.23;13.22;;;;;;;16.00;81.62;99597.09;1755649;81;21098;-75
2021/08/06 06:27:17;;;;;;;14.93;13.28;;;;;;;16.00;81.65;99584.99;1782530;80;21004;-75
2021/08/06 06:29:43;;;;;;;19.75;13.03;;;;;;;16.06;81.66;99590.80;1755463;81;22102;-75
2021/08/06 06:32:09;;;;;;;14.25;11.80;;;;;;;16.14;81.66;99591.86;1771504;80;21479;-75
2021/08/06 06:34:35;;;;;;;13.98;12.53;;;;;;;16.16;81.65;99588.41;1732575;81;21546;-75
2021/08/06 06:37:02;;;;;;;15.60;14.00;;;;;;;16.22;81.65;99590.73;1734964;81;21464;-75
2021/08/06 06:39:28;;;;;;;16.90;13.58;;;;;;;16.24;81.68;99585.41;1751357;81;21034;-75
2021/08/06 06:41:54;;;;;;;12.98;11.68;;;;;;;16.29;81.69;99598.99;1751307;81;21475;-75
2021/08/06 06:44:20;;;;;;;14.25;12.68;;;;;;;16.34;81.70;99592.42;1751664;81;21023;-75
2021/08/06 06:46:46;;;;;;;13.65;12.43;;;;;;;16.41;81.70;99597.71;1752142;81;21129;-75
2021/08/06 06:49:12;;;;;;;15.15;13.35;;;;;;;16.50;81.73;99593.67;1754343;80;21015;-75
2021/08/06 06:51:38;;;;;;;14.07;12.35;;;;;;;16.58;81.72;99593.88;1782801;80;21093;-75
2021/08/06 06:54:04;;;;;;;15.03;13.45;;;;;;;16.71;81.70;99595.07;1761077;80;21078;-76
2021/08/06 06:56:30;;;;;;;13.50;11.97;;;;;;;16.71;81.66;99592.38;1757137;81;20991;-75
2021/08/06 06:58:56;;;;;;;13.28;11.75;;;;;;;16.75;81.64;99592.19;1757089;81;21046;-75
2021/08/06 07:01:22;;;;;;;13.05;11.75;;;;;;;16.77;81.64;99598.19;1774322;80;21049;-75
2021/08/06 07:03:49;;;;;;;15.20;12.50;;;;;;;16.81;81.60;99596.68;1760395;80;21065;-75
2021/08/06 07:06:19;;;;;;;14.90;12.47;;;;;;;16.91;81.61;99599.11;1751876;81;21041;-75
2021/08/06 07:08:46;;;;;;;14.65;12.65;;;;;;;17.01;81.58;99599.88;1751880;81;21066;-74
2021/08/06 07:11:12;;;;;;;16.20;12.18;;;;;;;17.12;81.55;99605.83;1728684;81;21117;-75
2021/08/06 07:13:38;;;;;;;13.93;12.55;;;;;;;17.27;81.46;99598.13;1753148;81;20995;-74
2021/08/06 07:16:05;;;;;;;13.05;11.85;;;;;;;17.38;81.40;99594.59;1751368;81;21118;-74
2021/08/06 07:18:32;;;;;;;14.35;11.73;;;;;;;17.55;81.38;99600.66;1741482;81;21223;-75
2021/08/06 07:21:00;;;;;;;11.40;9.60;;;;;;;17.73;81.31;99603.27;1756273;81;21105;-75
2021/08/06 07:23:29;;;;;;;11.08;10.00;;;;;;;17.91;81.21;99601.75;1740413;81;21051;-75
2021/08/06 07:25:56;;;;;;;10.28;9.10;;;;;;;18.09;81.06;99601.61;1731299;81;21035;-75
2021/08/06 07:28:22;;;;;;;11.78;9.10;;;;;;;18.32;80.94;99605.61;1737186;81;21087;-75
2021/08/06 07:30:48;;;;;;;10.78;9.68;;;;;;;18.50;80.74;99610.55;1751542;81;21575;-75
2021/08/06 07:33:14;;;;;;;9.45;7.85;;;;;;;18.65;80.57;99600.86;1752156;81;21503;-75
2021/08/06 07:35:41;;;;;;;10.40;8.13;;;;;;;18.90;80.38;99604.56;1749315;80;21117;-75
2021/08/06 07:38:07;;;;;;;8.18;6.75;;;;;;;19.17;80.18;99609.66;1752212;81;21017;-75
2021/08/06 07:40:33;;;;;;;8.65;6.60;;;;;;;19.44;79.87;99606.61;1752114;81;21035;-75
2021/08/06 07:43:00;;;;;;;10.82;6.35;;;;;;;19.68;79.60;99596.94;1752094;81;21075;-75
2021/08/06 07:45:26;;;;;;;7.42;5.78;;;;;;;20.02;79.31;99612.58;1751715;81;21009;-75
2021/08/06 07:47:52;;;;;;;5.40;4.17;;;;;;;20.41;78.99;99606.05;1751973;81;21079;-75
2021/08/06 07:50:18;;;;;;;5.70;4.60;;;;;;;20.72;78.52;99602.59;1751601;81;21512;-75
2021/08/06 07:52:44;;;;;;;4.42;4.03;;;;;;;20.97;77.98;99599.31;1751789;81;20885;-75
2021/08/06 07:55:12;;;;;;;8.05;3.77;;;;;;;21.34;77.54;99599.41;1753274;81;21633;-75
2021/08/06 07:57:40;;;;;;;9.40;3.97;;;;;;;21.69;76.95;99596.95;1756590;81;21034;-75
2021/08/06 08:00:07;;;;;;;4.03;2.90;;;;;;;22.00;76.28;99592.53;1756982;81;21022;-75
2021/08/06 08:02:36;;;;;;;4.20;2.05;;;;;;;22.29;75.59;99591.04;1753941;80;21054;-75
2021/08/06 08:05:02;;;;;;;5.25;2.40;;;;;;;22.34;74.65;99593.76;1731223;81;21048;-75
2021/08/06 08:07:28;;;;;;;5.50;2.30;;;;;;;22.41;73.53;99595.69;1739847;81;21872;-75
2021/08/06 08:09:54;;;;;;;4.25;2.00;;;;;;;22.63;72.80;99598.73;1754853;81;21034;-75
2021/08/06 08:12:20;;;;;;;4.03;1.80;;;;;;;22.74;71.77;99600.43;1745289;81;20995;-75
2021/08/06 08:14:48;;;;;;;6.95;2.92;;;;;;;22.71;70.63;99605.05;1725240;83;21002;-75
2021/08/06 08:17:16;;;;;;;5.80;2.47;;;;;;;22.66;69.87;99611.82;1733879;82;21040;-75
2021/08/06 08:19:42;;;;;;;3.72;2.75;;;;;;;22.77;69.32;99616.20;1736719;80;22502;-75
2021/08/06 08:22:08;;;;;;;2.47;2.27;;;;;;;22.90;68.47;99604.27;1753199;81;21112;-75
2021/08/06 08:24:37;;;;;;;3.50;2.35;;;;;;;22.92;67.65;99611.34;1750191;81;20998;-75
2021/08/06 08:27:03;;;;;;;4.83;2.17;;;;;;;22.88;66.89;99609.70;1740919;81;20985;-75
2021/08/06 08:29:29;;;;;;;2.40;2.20;;;;;;;22.86;66.13;99605.09;1746574;81;21054;-75
2021/08/06 08:31:55;;;;;;;5.20;2.70;;;;;;;22.78;65.60;99609.69;1742946;81;21933;-75
2021/08/06 08:34:22;;;;;;;3.17;2.25;;;;;;;22.72;65.19;99614.31;1742402;81;21043;-75
2021/08/06 08:36:48;;;;;;;4.50;1.60;;;;;;;22.78;64.86;99626.00;1736411;81;21014;-75
2021/08/06 08:39:15;;;;;;;4.03;2.70;;;;;;;22.55;63.90;99621.02;1747623;81;20995;-75
2021/08/06 08:41:41;;;;;;;4.05;1.92;;;;;;;22.35;63.31;99621.21;1752703;80;21053;-75
2021/08/06 08:44:07;;;;;;;8.85;4.05;;;;;;;22.21;62.75;99629.57;1758489;81;21894;-75
2021/08/06 08:46:33;;;;;;;6.58;3.70;;;;;;;22.09;62.49;99628.16;1754644;81;21086;-75
2021/08/06 08:49:00;;;;;;;4.22;3.10;;;;;;;22.16;62.32;99635.00;1730780;82;21089;-75
2021/08/06 08:51:27;;;;;;;7.85;5.00;;;;;;;22.06;61.98;99624.05;1731385;81;20943;-75
2021/08/06 08:53:54;;;;;;;3.83;3.12;;;;;;;21.97;61.80;99628.90;1751840;81;21374;-75
2021/08/06 08:56:20;;;;;;;8.08;2.95;;;;;;;21.93;61.78;99620.46;1733504;81;22124;-75
2021/08/06 08:58:46;;;;;;;8.28;4.45;;;;;;;21.97;61.76;99622.11;1731344;81;21520;-76
2021/08/06 09:01:13;;;;;;;5.35;4.03;;;;;;;21.97;61.64;99620.75;1723773;81;21082;-76
2021/08/06 09:03:48;;;;;;;6.50;4.28;;;;;;;22.08;61.59;99621.91;1718855;81;21803;-74
2021/08/06 09:06:16;;;;;;;3.85;3.25;;;;;;;22.02;61.39;99620.26;1742103;81;21473;-75
2021/08/06 09:08:42;;;;;;;3.95;3.20;;;;;;;22.05;61.40;99622.44;1740603;81;21937;-75
2021/08/06 09:11:29;;;;;;;3.85;2.77;;;;;;;21.98;61.26;99627.83;1733119;81;21003;-75
2021/08/06 09:14:24;;;;;;;5.05;3.27;;;;;;;21.89;61.24;99622.85;1740944;81;21069;-75
2021/08/06 09:17:13;;;;;;;8.95;2.92;;;;;;;21.97;61.08;99620.22;1743227;81;20989;-76
2021/08/06 09:19:55;;;;;;;4.03;3.17;;;;;;;21.97;60.87;99628.90;1738207;81;20919;-76
2021/08/06 09:22:24;;;;;;;6.10;3.45;;;;;;;22.05;60.80;99632.48;1728740;81;21659;-76
2021/08/06 09:25:14;;;;;;;8.15;3.40;;;;;;;22.02;60.68;99635.19;1746788;81;21042;-75
2021/08/06 09:27:44;;;;;;;6.65;3.62;;;;;;;22.00;60.66;99640.05;1738893;81;20995;-75
2021/08/06 09:30:26;;;;;;;;;;;;;;;22.09;60.69;99633.06;1747412;81;21082;-76
2021/08/06 09:32:54;;;;;;;9.50;3.10;;;;;;;22.15;60.53;99640.14;1737933;81;20183;-75
2021/08/06 09:35:25;;;;;;;4.35;2.80;;;;;;;22.09;60.17;99637.13;1768626;80;22373;-75
2021/08/06 09:37:52;;;;;;;6.35;2.72;;;;;;;22.08;60.06;99638.20;1705696;81;21062;-75
2021/08/06 09:40:22;;;;;;;4.40;2.77;;;;;;;22.13;59.97;99642.28;1768138;80;21118;-75
2021/08/06 09:42:57;;;;;;;7.95;2.40;;;;;;;22.13;59.77;99632.78;1759801;80;20995;-76
2021/08/06 09:45:26;;;;;;;3.02;2.08;;;;;;;22.22;59.69;99638.00;1731681;81;21031;-75
2021/08/06 09:47:55;;;;;;;4.22;2.52;;;;;;;22.29;59.33;99633.69;1743838;81;22386;-75
2021/08/06 09:50:38;;;;;;;3.47;2.02;;;;;;;22.51;59.27;99634.87;1740939;81;21167;-75
2021/08/06 09:53:04;;;;;;;7.37;1.50;;;;;;;22.73;58.92;99634.95;1734723;81;20952;-76
2021/08/06 09:55:33;;;;;;;3.72;1.95;;;;;;;22.72;58.40;99629.80;1752086;81;21011;-76
2021/08/06 09:58:02;;;;;;;5.73;2.17;;;;;;;22.75;57.96;99633.34;1742635;82;21470;-76
2021/08/06 10:00:28;;;;;;;2.30;1.40;;;;;;;22.78;57.46;99631.44;1744525;81;21681;-76
2021/08/06 10:02:55;;;;;;;2.33;1.70;;;;;;;22.65;56.99;99637.36;1748674;81;21673;-76
2021/08/06 10:05:24;;;;;;;3.08;2.10;;;;;;;22.58;56.73;99627.28;1760919;81;21093;-76
2021/08/06 10:07:53;;;;;;;6.67;1.85;;;;;;;22.57;56.51;99632.44;1748798;81;21077;-76
2021/08/06 10:10:29;;;;;;;7.97;1.95;;;;;;;22.64;56.32;99629.75;1729683;82;21065;-76
2021/08/06 10:12:56;;;;;;;6.65;1.98;;;;;;;22.65;56.01;99634.64;1737063;81;21756;-76
2021/08/06 10:15:23;;;;;;;3.95;1.98;;;;;;;22.68;55.56;99632.23;1727252;81;21051;-75
2021/08/06 10:17:49;;;;;;;2.58;1.98;;;;;;;22.86;55.40;99626.84;1735402;81;22169;-75
2021/08/06 10:20:18;;;;;;;8.23;3.00;;;;;;;22.88;55.34;99620.58;1730692;81;21554;-75
2021/08/06 10:22:44;;;;;;;5.22;1.77;;;;;;;22.99;55.29;99622.77;1702799;82;21100;-76
2021/08/06 10:25:11;;;;;;;3.27;1.37;;;;;;;23.01;54.91;99622.77;1724440;82;21907;-75
2021/08/06 10:27:44;;;;;;;2.47;1.40;;;;;;;23.21;54.75;99624.72;1726260;81;21495;-76
2021/08/06 10:30:24;;;;;;;2.77;2.00;;;;;;;23.30;54.19;99623.89;1708451;83;21058;-76
2021/08/06 10:33:20;;;;;;;5.35;1.90;;;;;;;23.32;53.50;99621.73;1731561;81;21029;-76
2021/08/06 10:35:55;;;;;;;7.05;2.35;;;;;;;23.34;53.15;99624.98;1753356;81;21330;-76
2021/08/06 10:38:42;;;;;;;2.90;2.22;;;;;;;23.32;52.96;99629.89;1733708;82;23064;-76
2021/08/06 10:41:20;;;;;;;6.20;2.83;;;;;;;23.07;52.79;99629.88;1732830;82;21476;-76
2021/08/06 10:44:01;;;;;;;6.35;1.70;;;;;;;22.85;52.54;99626.56;1735435;82;21045;-76
2021/08/06 10:46:28;;;;;;;7.03;2.25;;;;;;;22.77;52.29;99625.18;1735043;82;21065;-75
2021/08/06 10:48:55;;;;;;;25.12;4.65;;;;;;;22.66;52.21;99622.70;1744071;82;21331;-76
2021/08/06 10:51:27;;;;;;;3.27;1.25;;;;;;;22.59;52.34;99623.48;1733810;82;21874;-76
2021/08/06 10:54:04;;;;;;;3.22;1.90;;;;;;;22.71;52.44;99618.64;1725847;82;21380;-75
2021/08/06 10:56:33;;;;;;;5.37;1.80;;;;;;;22.77;52.27;99619.74;1704249;84;21045;-75
2021/08/06 10:59:10;;;;;;;3.42;1.57;;;;;;;22.68;51.93;99620.55;1730456;82;20988;-76
2021/08/06 11:01:35;;;;;;;4.12;1.35;;;;;;;22.65;51.91;99623.77;1737156;82;21097;-75
2021/08/06 11:04:19;;;;;;;4.43;1.30;;;;;;;22.59;51.56;99613.97;1734598;82;21900;-75
2021/08/06 11:06:48;;;;;;;2.77;1.42;;;;;;;22.60;51.57;99615.59;1734476;82;21298;-75
2021/08/06 11:09:35;;;;;;;5.95;2.05;;;;;;;22.49;51.39;99610.66;1734748;82;21065;-75
2021/08/06 11:12:10;;;;;;;2.75;1.70;;;;;;;22.60;51.56;99613.69;1733970;82;21006;-75
2021/08/06 11:14:42;;;;;;;1.87;1.50;;;;;;;22.63;51.58;99613.16;1734227;82;21066;-75
2021/08/06 11:17:22;;;;;;;2.02;1.17;;;;;;;22.56;51.44;99612.59;1734238;82;22232;-75
2021/08/06 11:19:55;;;;;;;2.80;1.30;;;;;;;22.61;51.44;99606.36;1734722;82;20941;-75
2021/08/06 11:22:32;;;;;;;4.92;1.20;;;;;;;22.57;51.21;99605.25;1734796;82;20906;-75
2021/08/06 11:25:00;;;;;;;3.95;1.70;;;;;;;22.54;51.14;99600.36;1733841;82;21022;-76
2021/08/06 11:27:47;;;;;;;10.35;1.92;;;;;;;22.50;50.91;99600.61;1735120;82;21458;-75